createdAt,value
2018-07-22T00:01:17.093Z,6.9
2018-07-22T00:11:31.499Z,6.5
2018-07-22T00:21:45.845Z,5.7
2018-07-22T00:32:00.146Z,5.7
2018-07-22T00:42:45.877Z,8.0
2018-07-22T00:53:31.863Z,8.1
2018-07-22T01:04:17.490Z,10.6
2018-07-22T01:15:02.932Z,7.4
2018-07-22T01:25:48.936Z,8.4
2018-07-22T01:36:35.093Z,7.0
2018-07-22T01:46:49.197Z,5.5
2018-07-22T01:57:03.217Z,7.2
2018-07-22T02:07:17.778Z,5.2
2018-07-22T02:17:31.684Z,5.1
2018-07-22T02:27:45.823Z,8.0
2018-07-22T02:38:33.384Z,8.6
2018-07-22T02:49:19.622Z,8.3
2018-07-22T02:59:33.722Z,6.3
2018-07-22T03:10:20.129Z,6.6
2018-07-22T03:21:05.780Z,6.6
2018-07-22T03:31:51.999Z,7.8
2018-07-22T03:42:06.050Z,7.5
2018-07-22T03:52:20.285Z,8.1
2018-07-22T04:02:35.114Z,5.7
2018-07-22T04:12:48.641Z,8.0
2018-07-22T04:23:17.814Z,5.9
2018-07-22T04:33:32.331Z,5.9
2018-07-22T04:44:17.893Z,9.7
2018-07-22T04:55:05.589Z,8.4
2018-07-22T05:05:51.307Z,9.3
2018-07-22T05:16:37.062Z,9.6
2018-07-22T05:27:22.839Z,8.8
2018-07-22T05:38:08.874Z,7.1
2018-07-22T05:48:54.496Z,8.7
2018-07-22T05:59:40.192Z,9.1
2018-07-22T06:10:26.287Z,7.0
2018-07-22T06:20:40.874Z,7.5
2018-07-22T06:30:54.513Z,6.6
2018-07-22T06:41:06.856Z,7.2
2018-07-22T06:51:52.276Z,7.3
2018-07-22T07:02:38.077Z,6.5
2018-07-22T07:13:23.528Z,3.7
2018-07-22T07:23:37.860Z,3.2
2018-07-22T07:33:52.318Z,3.4
2018-07-22T07:44:06.652Z,3.8
2018-07-22T07:54:18.346Z,3.6
2018-07-22T08:04:32.492Z,2.9
2018-07-22T08:14:45.853Z,3.1
2018-07-22T08:25:00.093Z,2.1
2018-07-22T08:35:14.257Z,2.5
2018-07-22T08:45:28.260Z,1.6
2018-07-22T08:55:42.215Z,1.6
2018-07-22T09:05:55.750Z,1.8
2018-07-22T09:16:08.957Z,2.2
2018-07-22T09:26:22.465Z,2.9
2018-07-22T09:36:36.860Z,2.2
2018-07-22T09:47:22.633Z,3.0
2018-07-22T09:57:37.190Z,2.9
2018-07-22T10:07:51.089Z,3.1
2018-07-22T10:18:05.717Z,2.4
2018-07-22T10:28:35.383Z,2.4
2018-07-22T10:38:49.655Z,2.1
2018-07-22T10:53:17.636Z,2.1
2018-07-22T11:18:52.052Z,1.4
2018-07-22T11:58:08.647Z,2.5
2018-07-22T12:08:23.508Z,1.8
2018-07-22T12:18:37.144Z,2.3
2018-07-22T14:08:19.561Z,2.1
2018-07-22T14:18:33.969Z,1.7
2018-07-22T14:28:48.426Z,2.0
2018-07-22T14:39:34.033Z,1.9
2018-07-22T14:50:19.738Z,2.8
2018-07-22T15:00:30.859Z,2.5
2018-07-22T15:10:42.791Z,1.9
2018-07-22T15:20:56.988Z,2.9
2018-07-22T15:42:41.270Z,2.0
2018-07-22T15:52:56.267Z,3.5
2018-07-22T16:03:10.293Z,2.0
2018-07-22T16:13:24.271Z,1.9
2018-07-22T16:23:39.356Z,2.8
2018-07-22T16:33:53.887Z,3.3
2018-07-22T16:44:08.853Z,2.4
2018-07-22T16:54:30.677Z,1.8
2018-07-22T17:04:45.292Z,2.9
2018-07-22T17:14:57.708Z,2.3
2018-07-22T17:25:43.814Z,2.9
2018-07-22T17:35:57.675Z,2.4
2018-07-22T17:46:43.148Z,3.2
2018-07-22T17:57:28.494Z,2.4
2018-07-22T18:08:13.989Z,3.1
2018-07-22T18:18:28.305Z,2.1
2018-07-22T18:29:13.338Z,2.9
2018-07-22T18:39:26.911Z,3.4
2018-07-22T18:49:53.881Z,3.2
2018-07-22T19:00:05.878Z,2.5
2018-07-22T19:10:17.801Z,2.4
2018-07-22T19:21:03.099Z,5.4
2018-07-22T19:31:17.422Z,3.5
2018-07-22T19:41:29.843Z,3.8
2018-07-22T19:51:44.354Z,2.5
2018-07-22T20:01:59.186Z,4.7
2018-07-22T20:12:13.678Z,3.6
2018-07-22T20:22:59.194Z,3.6
2018-07-22T20:33:13.472Z,3.0
2018-07-22T20:43:27.167Z,3.1
2018-07-22T20:53:40.894Z,3.5
2018-07-22T21:03:56.550Z,3.5
2018-07-22T21:14:10.158Z,3.2
2018-07-22T21:24:24.370Z,2.7
2018-07-22T21:34:38.406Z,3.2
2018-07-22T21:44:52.745Z,3.5
2018-07-22T21:55:38.303Z,4.1
2018-07-22T22:05:52.740Z,4.8
2018-07-22T22:16:38.582Z,5.4
2018-07-22T22:26:50.648Z,3.5
2018-07-22T22:37:04.712Z,3.8
2018-07-22T22:47:16.005Z,4.0
2018-07-22T22:58:01.937Z,4.6
2018-07-22T23:08:50.009Z,4.8
2018-07-22T23:19:05.499Z,4.5
2018-07-22T23:29:20.084Z,3.5
2018-07-22T23:39:34.193Z,4.9
2018-07-22T23:50:19.597Z,5.7
